createdAt,value
2022-09-07T00:00:17.952Z,15.00
2022-09-07T00:03:38.340Z,14.98
2022-09-07T00:06:11.875Z,15.00
2022-09-07T00:08:43.439Z,15.00
2022-09-07T00:11:17.365Z,14.90
2022-09-07T00:13:49.314Z,14.92
2022-09-07T00:16:21.829Z,14.90
2022-09-07T00:18:54.389Z,14.90
2022-09-07T00:21:23.978Z,14.90
2022-09-07T00:23:53.608Z,14.90
2022-09-07T00:26:25.648Z,14.90
2022-09-07T00:28:59.810Z,14.90
2022-09-07T00:31:31.072Z,14.90
2022-09-07T00:34:02.936Z,14.90
2022-09-07T00:36:33.262Z,14.90
2022-09-07T00:39:02.686Z,14.90
2022-09-07T00:41:32.193Z,14.90
2022-09-07T00:45:00.606Z,14.90
2022-09-07T00:47:37.660Z,14.90
2022-09-07T00:50:15.971Z,14.90
2022-09-07T00:52:48.238Z,14.90
2022-09-07T00:55:19.204Z,14.90
2022-09-07T00:57:54.528Z,14.90
2022-09-07T01:00:24.292Z,14.90
2022-09-07T01:02:59.192Z,14.90
2022-09-07T01:05:35.379Z,14.90
2022-09-07T01:08:05.697Z,14.90
2022-09-07T01:10:37.030Z,14.88
2022-09-07T01:13:07.886Z,14.80
2022-09-07T01:15:50.995Z,14.80
2022-09-07T01:18:37.896Z,14.80
2022-09-07T01:21:45.215Z,14.74
2022-09-07T01:24:38.236Z,14.70
2022-09-07T01:28:03.591Z,14.70
2022-09-07T01:30:38.183Z,14.64
2022-09-07T01:33:32.736Z,14.60
2022-09-07T01:36:20.042Z,14.56
2022-09-07T01:38:54.117Z,14.56
2022-09-07T01:41:32.817Z,14.52
2022-09-07T01:44:11.451Z,14.50
2022-09-07T01:46:49.688Z,14.44
2022-09-07T01:49:24.917Z,14.40
2022-09-07T01:52:02.071Z,14.40
2022-09-07T01:54:36.703Z,14.40
2022-09-07T01:57:15.826Z,14.40
2022-09-07T01:59:53.358Z,14.50
2022-09-07T02:02:33.230Z,14.66
2022-09-07T02:05:09.961Z,14.70
2022-09-07T02:07:47.957Z,14.62
2022-09-07T02:10:24.979Z,14.60
2022-09-07T02:13:03.208Z,14.60
2022-09-07T02:15:44.388Z,14.60
2022-09-07T02:18:14.560Z,14.60
2022-09-07T02:20:50.139Z,14.60
2022-09-07T02:23:24.759Z,14.60
2022-09-07T02:26:01.144Z,14.60
2022-09-07T02:28:35.971Z,14.52
2022-09-07T02:31:07.631Z,14.50
2022-09-07T02:33:37.142Z,14.50
2022-09-07T02:36:09.171Z,14.50
2022-09-07T02:38:38.946Z,14.50
2022-09-07T02:41:31.757Z,14.50
2022-09-07T02:44:04.219Z,14.50
2022-09-07T02:47:01.157Z,14.50
2022-09-07T02:50:02.946Z,14.50
2022-09-07T02:52:44.258Z,14.48
2022-09-07T02:55:27.014Z,14.50
2022-09-07T02:58:19.125Z,14.40
2022-09-07T03:00:58.866Z,14.40
2022-09-07T03:03:42.629Z,14.40
2022-09-07T03:06:22.947Z,14.42
2022-09-07T03:08:58.528Z,14.48
2022-09-07T03:11:29.218Z,14.48
2022-09-07T03:14:14.972Z,14.40
2022-09-07T03:16:44.650Z,14.40
2022-09-07T03:19:13.782Z,14.40
2022-09-07T03:21:43.550Z,14.30
2022-09-07T03:24:12.828Z,14.30
2022-09-07T03:26:45.847Z,14.30
2022-09-07T03:29:15.490Z,14.28
2022-09-07T03:31:44.826Z,14.20
2022-09-07T03:34:14.558Z,14.20
2022-09-07T03:36:44.128Z,14.18
2022-09-07T03:39:13.865Z,14.20
2022-09-07T03:41:42.912Z,14.30
2022-09-07T03:44:12.395Z,14.40
2022-09-07T03:46:41.580Z,14.40
2022-09-07T03:49:11.056Z,14.40
2022-09-07T03:51:40.231Z,14.50
2022-09-07T03:54:09.281Z,14.50
2022-09-07T03:56:38.328Z,14.50
2022-09-07T03:59:07.450Z,14.50
2022-09-07T04:01:36.642Z,14.30
2022-09-07T04:04:05.899Z,14.20
2022-09-07T04:06:35.218Z,14.10
2022-09-07T04:09:06.714Z,14.00
2022-09-07T04:11:35.895Z,13.90
2022-09-07T04:14:05.390Z,14.00
2022-09-07T04:16:35.771Z,14.10
2022-09-07T04:19:05.822Z,14.20
2022-09-07T04:21:35.327Z,14.20
2022-09-07T04:24:06.186Z,14.10
2022-09-07T04:26:36.567Z,13.92
2022-09-07T04:29:06.695Z,13.90
2022-09-07T04:31:36.748Z,13.80
2022-09-07T04:34:07.389Z,13.70
2022-09-07T04:36:36.497Z,13.60
2022-09-07T04:39:06.887Z,13.58
2022-09-07T04:41:36.405Z,13.50
2022-09-07T04:44:06.715Z,13.50
2022-09-07T04:46:38.008Z,13.50
2022-09-07T04:49:10.490Z,13.50
2022-09-07T04:51:42.443Z,13.50
2022-09-07T04:54:12.468Z,13.50
2022-09-07T04:56:42.020Z,13.50
2022-09-07T04:59:11.618Z,13.50
2022-09-07T05:01:41.406Z,13.50
2022-09-07T05:04:10.967Z,13.50
2022-09-07T05:06:40.502Z,13.50
2022-09-07T05:09:10.999Z,13.60
2022-09-07T05:11:40.600Z,13.62
2022-09-07T05:14:11.891Z,13.70
2022-09-07T05:16:40.995Z,13.80
2022-09-07T05:19:13.904Z,13.80
2022-09-07T05:21:43.145Z,13.80
2022-09-07T05:24:12.361Z,13.84
2022-09-07T05:26:41.828Z,13.90
2022-09-07T05:32:01.747Z,13.90
2022-09-07T05:34:31.639Z,14.00
2022-09-07T05:37:02.641Z,14.00
2022-09-07T05:39:33.245Z,14.00
2022-09-07T05:42:02.440Z,14.12
2022-09-07T05:44:47.125Z,14.20
2022-09-07T05:47:16.504Z,14.28
2022-09-07T05:49:45.572Z,14.30
2022-09-07T05:52:14.629Z,14.30
2022-09-07T05:54:43.642Z,14.36
2022-09-07T05:57:13.564Z,14.40
2022-09-07T05:59:42.712Z,14.50
2022-09-07T06:02:15.511Z,14.50
2022-09-07T06:04:45.073Z,14.60
2022-09-07T06:07:22.785Z,14.60
2022-09-07T06:12:49.052Z,14.78
2022-09-07T06:15:19.136Z,14.82
2022-09-07T06:17:48.221Z,14.90
2022-09-07T06:20:17.701Z,14.90
2022-09-07T06:26:54.649Z,15.30
2022-09-07T06:29:27.495Z,15.40
2022-09-07T06:32:45.097Z,15.50
2022-09-07T06:35:17.973Z,15.60
2022-09-07T06:37:47.838Z,15.70
2022-09-07T06:40:19.629Z,15.80
2022-09-07T06:42:49.008Z,15.90
2022-09-07T06:45:19.022Z,16.00
2022-09-07T06:47:48.333Z,16.10
2022-09-07T06:50:17.741Z,16.20
2022-09-07T06:55:44.059Z,16.40
2022-09-07T06:58:13.196Z,16.40
2022-09-07T07:00:42.416Z,16.50
2022-09-07T07:03:11.618Z,16.56
2022-09-07T07:05:40.769Z,16.60
2022-09-07T07:08:09.962Z,16.70
2022-09-07T07:10:39.695Z,16.80
2022-09-07T07:13:08.878Z,16.90
2022-09-07T07:15:37.995Z,17.00
2022-09-07T07:18:20.321Z,17.10
2022-09-07T07:20:50.596Z,17.20
2022-09-07T07:23:19.704Z,17.30
2022-09-07T07:25:48.821Z,17.34
2022-09-07T07:31:12.152Z,17.50
2022-09-07T07:33:43.014Z,17.60
2022-09-07T07:36:16.382Z,17.60
2022-09-07T07:39:03.954Z,17.70
2022-09-07T07:44:22.899Z,17.90
2022-09-07T07:46:52.302Z,17.98
2022-09-07T07:49:21.731Z,18.00
2022-09-07T07:54:42.992Z,18.34
2022-09-07T07:57:12.655Z,18.50
2022-09-07T07:59:41.818Z,18.60
2022-09-07T08:02:16.525Z,18.70
2022-09-07T08:04:57.366Z,18.90
2022-09-07T08:08:04.257Z,18.92
2022-09-07T08:10:41.259Z,19.02
2022-09-07T08:13:34.608Z,19.10
2022-09-07T08:16:15.060Z,19.22
2022-09-07T08:18:55.003Z,19.40
2022-09-07T08:21:28.321Z,19.50
2022-09-07T08:23:59.453Z,19.60
2022-09-07T08:26:28.839Z,19.70
2022-09-07T08:28:58.520Z,19.82
2022-09-07T08:31:29.578Z,19.98
2022-09-07T08:34:01.478Z,20.10
2022-09-07T08:40:39.306Z,20.50
2022-09-07T08:43:23.168Z,20.64
2022-09-07T08:46:40.440Z,20.70
2022-09-07T08:49:20.156Z,20.80
2022-09-07T08:51:58.252Z,20.88
2022-09-07T08:54:28.532Z,20.98
2022-09-07T09:00:06.065Z,21.16
2022-09-07T09:02:43.147Z,21.30
2022-09-07T09:05:45.697Z,21.40
2022-09-07T09:08:40.644Z,21.60
2022-09-07T09:11:24.809Z,21.78
2022-09-07T09:14:18.589Z,21.90
2022-09-07T09:16:57.734Z,22.00
2022-09-07T09:19:56.465Z,22.10
2022-09-07T09:22:28.042Z,22.26
2022-09-07T09:25:13.433Z,22.40
2022-09-07T09:27:43.999Z,22.50
2022-09-07T09:30:20.592Z,22.66
2022-09-07T09:33:14.239Z,22.80
2022-09-07T09:37:00.035Z,22.90
2022-09-07T09:39:44.569Z,23.10
2022-09-07T09:43:21.844Z,23.20
2022-09-07T09:46:19.118Z,23.40
2022-09-07T09:48:59.497Z,23.48
2022-09-07T09:55:33.917Z,23.60
2022-09-07T10:04:29.264Z,23.88
2022-09-07T10:07:08.387Z,24.00
2022-09-07T10:09:53.302Z,24.10
2022-09-07T10:12:33.107Z,24.20
2022-09-07T10:15:41.674Z,24.30
2022-09-07T10:18:26.254Z,24.40
2022-09-07T10:21:21.186Z,24.42
2022-09-07T10:23:57.752Z,24.50
2022-09-07T10:26:34.467Z,24.60
2022-09-07T10:29:22.000Z,24.80
2022-09-07T10:32:42.765Z,25.00
2022-09-07T10:35:27.040Z,25.28
2022-09-07T10:38:15.399Z,25.40
2022-09-07T10:40:53.508Z,25.60
2022-09-07T10:43:42.982Z,25.80
2022-09-07T10:47:03.947Z,26.00
2022-09-07T10:52:52.299Z,26.30
2022-09-07T10:55:32.341Z,26.30
2022-09-07T10:59:01.357Z,26.40
2022-09-07T11:01:27.095Z,26.50
2022-09-07T11:04:19.223Z,26.56
2022-09-07T11:06:52.315Z,26.60
2022-09-07T11:09:47.581Z,26.50
2022-09-07T11:12:27.357Z,26.50
2022-09-07T11:15:16.677Z,26.60
2022-09-07T11:17:53.338Z,26.70
2022-09-07T11:20:31.552Z,26.78
2022-09-07T11:23:14.596Z,26.90
2022-09-07T11:25:53.873Z,27.00
2022-09-07T11:28:28.596Z,27.14
2022-09-07T11:31:02.699Z,27.28
2022-09-07T11:33:40.459Z,27.30
2022-09-07T11:36:17.843Z,27.50
2022-09-07T11:38:54.042Z,27.68
2022-09-07T11:41:27.090Z,27.80
2022-09-07T11:44:18.862Z,27.90
2022-09-07T11:46:56.286Z,28.10
2022-09-07T11:49:27.144Z,28.46
2022-09-07T11:52:05.556Z,28.80
2022-09-07T11:54:44.903Z,29.10
2022-09-07T11:57:42.683Z,29.34
2022-09-07T12:00:21.237Z,29.64
2022-09-07T12:03:48.889Z,31.70
2022-09-07T12:06:59.968Z,34.12
2022-09-07T12:09:53.604Z,36.56
2022-09-07T12:12:51.194Z,38.16
2022-09-07T12:15:32.801Z,39.06
2022-09-07T12:18:21.908Z,40.00
2022-09-07T12:20:51.426Z,39.46
2022-09-07T12:23:29.259Z,38.34
2022-09-07T12:26:51.371Z,37.60
2022-09-07T12:29:24.965Z,39.06
2022-09-07T12:31:58.680Z,40.18
2022-09-07T12:34:57.297Z,40.42
2022-09-07T12:37:44.077Z,40.50
2022-09-07T12:40:59.630Z,41.06
2022-09-07T12:44:10.467Z,42.22
2022-09-07T12:47:03.349Z,43.28
2022-09-07T12:50:16.856Z,44.06
2022-09-07T12:53:28.617Z,44.50
2022-09-07T12:56:24.080Z,44.84
2022-09-07T12:59:19.785Z,45.52
2022-09-07T13:02:02.526Z,45.80
2022-09-07T13:04:58.607Z,46.12
2022-09-07T13:08:11.627Z,46.76
2022-09-07T13:10:43.064Z,47.18
2022-09-07T13:20:15.281Z,48.02
2022-09-07T13:23:22.364Z,48.26
2022-09-07T13:25:59.544Z,48.56
2022-09-07T13:28:55.721Z,48.70
2022-09-07T13:32:00.114Z,49.02
2022-09-07T13:34:52.887Z,49.16
2022-09-07T13:37:30.182Z,49.20
2022-09-07T13:40:03.362Z,48.92
2022-09-07T13:42:36.064Z,48.70
2022-09-07T13:45:25.836Z,48.30
2022-09-07T13:48:07.487Z,48.58
2022-09-07T13:50:56.922Z,48.78
2022-09-07T13:54:03.636Z,48.80
2022-09-07T13:57:09.604Z,48.90
2022-09-07T14:04:06.897Z,48.80
2022-09-07T14:07:54.720Z,48.88
2022-09-07T14:10:27.698Z,48.74
2022-09-07T14:13:11.552Z,48.40
2022-09-07T14:15:44.260Z,48.28
2022-09-07T14:18:18.002Z,48.30
2022-09-07T14:20:50.753Z,48.10
2022-09-07T14:23:29.422Z,47.90
2022-09-07T14:26:17.245Z,47.70
2022-09-07T14:28:50.067Z,47.76
2022-09-07T14:31:23.572Z,47.82
2022-09-07T14:33:57.576Z,47.80
2022-09-07T14:36:48.486Z,47.60
2022-09-07T14:39:21.818Z,47.34
2022-09-07T14:41:51.709Z,47.40
2022-09-07T14:44:34.829Z,47.30
2022-09-07T14:47:21.215Z,47.12
2022-09-07T14:49:52.741Z,46.90
2022-09-07T14:52:32.535Z,46.70
2022-09-07T14:55:05.840Z,46.68
2022-09-07T14:57:35.338Z,46.70
2022-09-07T15:00:30.771Z,46.50
2022-09-07T15:03:28.835Z,46.40
2022-09-07T15:06:01.129Z,46.10
2022-09-07T15:08:46.092Z,45.90
2022-09-07T15:11:38.988Z,45.60
2022-09-07T15:14:19.998Z,45.30
2022-09-07T15:19:50.211Z,44.80
2022-09-07T15:22:21.412Z,44.50
2022-09-07T15:24:49.864Z,44.16
2022-09-07T15:27:28.648Z,44.04
2022-09-07T15:29:57.792Z,43.50
2022-09-07T15:32:26.955Z,43.10
2022-09-07T15:34:55.999Z,42.62
2022-09-07T15:40:20.872Z,42.02
2022-09-07T15:43:19.492Z,41.74
2022-09-07T15:45:39.830Z,41.32
2022-09-07T15:48:14.239Z,40.90
2022-09-07T15:50:43.474Z,40.18
2022-09-07T15:56:03.458Z,38.90
2022-09-07T15:58:32.800Z,38.16
2022-09-07T16:03:54.352Z,36.18
2022-09-07T16:06:26.071Z,35.28
2022-09-07T16:08:56.323Z,34.42
2022-09-07T16:11:27.714Z,33.58
2022-09-07T16:14:01.856Z,32.82
2022-09-07T16:19:22.115Z,31.48
2022-09-07T16:21:51.375Z,31.00
2022-09-07T16:24:20.419Z,30.50
2022-09-07T16:26:49.708Z,30.02
2022-09-07T16:29:19.804Z,29.60
2022-09-07T16:34:39.071Z,28.80
2022-09-07T16:37:08.684Z,28.50
2022-09-07T16:39:37.764Z,28.16
2022-09-07T16:42:08.873Z,27.80
2022-09-07T16:44:38.117Z,27.50
2022-09-07T16:47:07.980Z,27.20
2022-09-07T16:49:37.333Z,26.94
2022-09-07T16:52:10.605Z,26.70
2022-09-07T16:54:40.036Z,26.44
2022-09-07T16:57:09.107Z,26.20
2022-09-07T16:59:38.107Z,26.00
2022-09-07T17:02:09.420Z,25.78
2022-09-07T17:04:38.502Z,25.56
2022-09-07T17:07:07.564Z,25.40
2022-09-07T17:09:36.701Z,25.20
2022-09-07T17:12:07.646Z,25.08
2022-09-07T17:14:36.708Z,24.90
2022-09-07T17:17:05.846Z,24.72
2022-09-07T17:19:35.502Z,24.60
2022-09-07T17:22:05.035Z,24.50
2022-09-07T17:24:34.269Z,24.30
2022-09-07T17:27:04.378Z,24.20
2022-09-07T17:29:37.109Z,24.00
2022-09-07T17:32:24.512Z,23.90
2022-09-07T17:34:55.193Z,23.80
2022-09-07T17:37:24.315Z,23.74
2022-09-07T17:39:53.466Z,23.70
2022-09-07T17:42:25.112Z,23.60
2022-09-07T17:44:54.406Z,23.60
2022-09-07T17:47:23.589Z,23.50
2022-09-07T17:49:52.667Z,23.50
2022-09-07T17:52:22.507Z,23.40
2022-09-07T17:54:54.818Z,23.40
2022-09-07T17:57:24.256Z,23.30
2022-09-07T18:02:42.552Z,23.20
2022-09-07T18:05:11.863Z,23.20
2022-09-07T18:07:41.340Z,23.10
2022-09-07T18:10:11.158Z,23.08
2022-09-07T18:12:40.336Z,23.00
2022-09-07T18:15:11.251Z,23.00
2022-09-07T18:17:40.624Z,23.00
2022-09-07T18:20:10.621Z,22.98
2022-09-07T18:22:39.715Z,22.90
2022-09-07T18:25:10.443Z,22.90
2022-09-07T18:27:40.732Z,22.90
2022-09-07T18:30:13.200Z,22.90
2022-09-07T18:32:42.288Z,22.90
2022-09-07T18:35:11.723Z,22.90
2022-09-07T18:37:40.866Z,22.80
2022-09-07T18:40:12.129Z,22.68
2022-09-07T18:42:42.321Z,22.60
2022-09-07T18:45:29.505Z,22.54
2022-09-07T18:47:59.017Z,22.60
2022-09-07T18:50:28.114Z,22.60
2022-09-07T18:53:14.097Z,22.50
2022-09-07T18:55:45.549Z,22.40
2022-09-07T18:58:15.402Z,22.30
2022-09-07T19:00:46.964Z,22.10
2022-09-07T19:03:16.816Z,22.00
2022-09-07T19:05:50.052Z,21.90
2022-09-07T19:08:20.118Z,21.80
2022-09-07T19:10:49.770Z,21.70
2022-09-07T19:13:19.075Z,21.70
2022-09-07T19:15:48.316Z,21.60
2022-09-07T19:18:17.441Z,21.58
2022-09-07T19:20:46.610Z,21.50
2022-09-07T19:23:15.669Z,21.40
2022-09-07T19:25:44.809Z,21.40
2022-09-07T19:28:13.975Z,21.30
2022-09-07T19:30:43.304Z,21.30
2022-09-07T19:33:12.343Z,21.20
2022-09-07T19:35:41.431Z,21.20
2022-09-07T19:38:11.991Z,21.14
2022-09-07T19:40:41.349Z,21.10
2022-09-07T19:43:10.573Z,21.08
2022-09-07T19:45:40.120Z,21.00
2022-09-07T19:48:09.236Z,20.94
2022-09-07T19:50:38.389Z,20.90
2022-09-07T19:53:07.690Z,20.82
2022-09-07T19:55:36.846Z,20.80
2022-09-07T19:58:07.740Z,20.80
2022-09-07T20:00:38.916Z,20.80
2022-09-07T20:03:09.182Z,20.80
2022-09-07T20:05:41.925Z,20.80
2022-09-07T20:08:11.856Z,20.70
2022-09-07T20:10:41.120Z,20.60
2022-09-07T20:13:10.453Z,20.50
2022-09-07T20:15:41.948Z,20.50
2022-09-07T20:18:11.179Z,20.40
2022-09-07T20:20:40.335Z,20.40
2022-09-07T20:23:09.939Z,20.40
2022-09-07T20:25:39.197Z,20.30
2022-09-07T20:28:08.764Z,20.30
2022-09-07T20:30:43.922Z,20.28
2022-09-07T20:33:13.152Z,20.20
2022-09-07T20:35:43.091Z,20.20
2022-09-07T20:38:12.147Z,20.10
2022-09-07T20:40:52.536Z,20.10
2022-09-07T20:43:22.738Z,20.00
2022-09-07T20:45:57.130Z,19.90
2022-09-07T20:48:27.287Z,19.90
2022-09-07T20:50:57.959Z,19.80
2022-09-07T20:53:27.836Z,19.80
2022-09-07T20:56:02.430Z,19.70
2022-09-07T20:58:31.877Z,19.70
2022-09-07T21:01:02.085Z,19.60
2022-09-07T21:03:31.555Z,19.60
2022-09-07T21:06:05.303Z,19.50
2022-09-07T21:08:38.499Z,19.50
2022-09-07T21:11:10.709Z,19.44
2022-09-07T21:13:40.250Z,19.40
2022-09-07T21:16:12.621Z,19.40
2022-09-07T21:18:43.398Z,19.30
2022-09-07T21:21:20.783Z,19.26
2022-09-07T21:23:56.010Z,19.20
2022-09-07T21:26:27.049Z,19.12
2022-09-07T21:28:58.035Z,19.10
2022-09-07T21:31:29.162Z,19.00
2022-09-07T21:34:00.793Z,19.00
2022-09-07T21:36:30.880Z,18.90
2022-09-07T21:38:59.996Z,18.98
2022-09-07T21:41:29.099Z,19.00
2022-09-07T21:44:00.215Z,19.00
2022-09-07T21:46:31.848Z,19.00
2022-09-07T21:49:01.580Z,18.92
2022-09-07T21:51:31.568Z,18.90
2022-09-07T21:54:01.799Z,18.90
2022-09-07T21:56:32.217Z,18.90
2022-09-07T21:59:04.078Z,18.80
2022-09-07T22:01:35.903Z,18.80
2022-09-07T22:04:11.576Z,18.80
2022-09-07T22:06:55.588Z,18.78
2022-09-07T22:09:24.794Z,18.74
2022-09-07T22:11:53.941Z,18.70
2022-09-07T22:14:23.001Z,18.70
2022-09-07T22:16:52.182Z,18.70
2022-09-07T22:19:21.739Z,18.70
2022-09-07T22:21:58.053Z,18.68
2022-09-07T22:24:27.541Z,18.70
2022-09-07T22:26:56.808Z,18.70
2022-09-07T22:29:27.482Z,18.60
2022-09-07T22:31:56.648Z,18.58
2022-09-07T22:34:26.019Z,18.50
2022-09-07T22:36:55.067Z,18.50
2022-09-07T22:39:24.371Z,18.50
2022-09-07T22:41:53.402Z,18.40
2022-09-07T22:44:24.027Z,18.42
2022-09-07T22:46:53.103Z,18.50
2022-09-07T22:49:22.164Z,18.50
2022-09-07T22:51:51.185Z,18.50
2022-09-07T22:54:20.586Z,18.40
2022-09-07T22:56:49.880Z,18.40
2022-09-07T22:59:18.881Z,18.40
2022-09-07T23:01:48.798Z,18.44
2022-09-07T23:04:17.974Z,18.50
2022-09-07T23:06:47.145Z,18.50
2022-09-07T23:09:18.111Z,18.40
2022-09-07T23:11:49.986Z,18.40
2022-09-07T23:14:23.379Z,18.40
2022-09-07T23:16:56.628Z,18.40
2022-09-07T23:19:32.550Z,18.40
2022-09-07T23:22:07.278Z,18.40
2022-09-07T23:24:41.047Z,18.40
2022-09-07T23:27:17.001Z,18.40
2022-09-07T23:29:55.315Z,18.40
2022-09-07T23:32:24.437Z,18.40
2022-09-07T23:34:53.518Z,18.44
2022-09-07T23:37:22.705Z,18.40
2022-09-07T23:39:51.920Z,18.32
2022-09-07T23:42:20.962Z,18.30
2022-09-07T23:44:50.061Z,18.20
2022-09-07T23:47:19.136Z,18.18
2022-09-07T23:49:48.121Z,18.10
2022-09-07T23:52:17.541Z,18.10
2022-09-07T23:54:46.560Z,18.06
2022-09-07T23:57:15.653Z,18.00
2022-09-07T23:59:44.760Z,18.00
